Time;durP1;ratioP1;P1;durP2;ratioP2;P2;SDS_P1;SDS_P2;PMS_P1;PMS_P2;Temp;Humidity;BMP_temperature;BMP_pressure;BME280_temperature;BME280_humidity;BME280_pressure;Samples;Min_cycle;Max_cycle;Signal;HPM_P1;HPM_P2
2022/04/28 00:01:00;;;;;;;3.03;1.88;;;;;;;20.35;50.84;101668.00;5014977;28;20048;-72
2022/04/28 00:03:28;;;;;;;3.45;1.90;;;;;;;20.35;50.79;101668.00;5014672;28;20038;-71
2022/04/28 00:05:57;;;;;;;3.45;2.17;;;;;;;20.35;50.83;101669.84;5015190;28;20489;-72
2022/04/28 00:08:25;;;;;;;2.88;2.47;;;;;;;20.35;50.89;101667.16;5014786;28;20056;-72
2022/04/28 00:10:52;;;;;;;2.78;2.00;;;;;;;20.34;50.90;101663.63;5014858;28;20046;-72
2022/04/28 00:13:20;;;;;;;3.20;2.08;;;;;;;20.34;50.93;101671.69;5014414;28;20379;-72
2022/04/28 00:15:47;;;;;;;5.00;2.03;;;;;;;20.33;50.78;101674.47;5012739;28;20370;-72
2022/04/28 00:18:15;;;;;;;3.25;2.10;;;;;;;20.33;50.86;101669.09;5013792;28;20052;-72
2022/04/28 00:20:42;;;;;;;3.45;1.70;;;;;;;20.34;50.95;101665.47;5014876;28;20045;-72
2022/04/28 00:23:10;;;;;;;2.50;1.70;;;;;;;20.32;50.79;101668.25;5014343;28;20053;-72
2022/04/28 00:25:37;;;;;;;3.38;2.03;;;;;;;20.33;50.81;101663.72;5014489;28;20513;-71
2022/04/28 00:28:04;;;;;;;4.50;2.10;;;;;;;20.32;50.91;101662.88;5014558;28;20057;-72
2022/04/28 00:30:32;;;;;;;2.55;1.75;;;;;;;20.33;50.80;101663.72;5013311;28;20050;-72
2022/04/28 00:32:59;;;;;;;2.40;1.88;;;;;;;20.32;50.85;101664.69;5029304;28;20050;-72
2022/04/28 00:35:27;;;;;;;5.80;2.38;;;;;;;20.31;50.75;101657.63;5013082;28;20106;-72
2022/04/28 00:37:54;;;;;;;2.53;1.80;;;;;;;20.31;50.80;101658.47;5014469;28;20060;-72
2022/04/28 00:40:21;;;;;;;5.45;2.28;;;;;;;20.30;50.63;101658.59;5013288;28;20050;-72
2022/04/28 00:42:49;;;;;;;3.45;2.53;;;;;;;20.31;50.67;101663.00;5013161;28;20060;-72
2022/04/28 00:45:16;;;;;;;4.28;2.17;;;;;;;20.29;50.64;101654.16;5014084;28;20046;-72
2022/04/28 00:50:40;;;;;;;3.85;2.00;;;;;;;20.29;50.72;101663.09;5014261;28;20038;-72
2022/04/28 00:53:11;;;;;;;3.63;2.22;;;;;;;20.29;50.63;101651.47;5014214;28;20057;-72
2022/04/28 00:55:41;;;;;;;3.50;2.10;;;;;;;20.29;50.65;101662.25;5012981;28;20061;-72
2022/04/28 00:58:10;;;;;;;2.92;1.98;;;;;;;20.29;50.70;101657.72;5013697;28;20060;-72
2022/04/28 01:00:39;;;;;;;3.13;2.03;;;;;;;20.29;50.65;101656.84;5012626;28;20057;-72
2022/04/28 01:03:10;;;;;;;3.15;2.00;;;;;;;20.28;50.58;101647.94;5014345;28;20052;-72
2022/04/28 01:05:38;;;;;;;3.33;1.85;;;;;;;20.28;50.53;101647.09;5012902;28;20098;-72
2022/04/28 01:08:06;;;;;;;3.72;2.13;;;;;;;20.27;50.71;101651.63;5013452;28;20050;-72
2022/04/28 01:10:35;;;;;;;4.13;2.10;;;;;;;20.28;50.42;101652.47;5012429;28;20057;-72
2022/04/28 01:13:04;;;;;;;2.88;2.08;;;;;;;20.26;50.53;101652.59;5012306;28;20516;-72
2022/04/28 01:15:48;;;;;;;3.42;2.20;;;;;;;20.27;50.36;101654.31;5012770;28;20054;-72
2022/04/28 01:18:17;;;;;;;4.80;2.15;;;;;;;20.26;50.51;101647.22;5013169;28;20498;-72
2022/04/28 01:20:45;;;;;;;3.75;1.98;;;;;;;20.27;50.38;101648.06;5012960;28;20061;-72
2022/04/28 01:23:12;;;;;;;3.63;2.20;;;;;;;20.25;50.56;101646.38;5013852;28;20058;-72
2022/04/28 01:25:41;;;;;;;3.03;2.05;;;;;;;20.25;50.48;101648.16;5011877;28;20057;-72
2022/04/28 01:28:09;;;;;;;3.83;2.30;;;;;;;20.25;50.53;101649.06;5011883;28;20395;-72
2022/04/28 01:30:37;;;;;;;2.80;1.88;;;;;;;20.25;50.38;101653.53;5028268;28;20102;-72
2022/04/28 01:33:09;;;;;;;4.13;2.13;;;;;;;20.24;50.49;101650.00;5012390;28;20054;-72
2022/04/28 01:35:39;;;;;;;5.72;2.10;;;;;;;20.25;50.53;101651.75;5013867;28;20042;-72
2022/04/28 01:38:07;;;;;;;3.13;1.80;;;;;;;20.25;50.57;101653.53;5012050;28;20075;-72
2022/04/28 01:40:35;;;;;;;3.92;2.05;;;;;;;20.24;50.26;101655.38;5011667;28;20057;-72
2022/04/28 01:43:03;;;;;;;3.63;2.30;;;;;;;20.23;50.35;101659.06;5012363;28;20054;-72
2022/04/28 01:45:30;;;;;;;2.88;2.03;;;;;;;20.24;50.38;101659.91;5012056;28;20514;-72
2022/04/28 01:48:13;;;;;;;3.78;2.55;;;;;;;20.23;50.37;101655.50;5028275;28;20049;-71
2022/04/28 01:56:44;;;;;;;3.65;2.13;;;;;;;20.23;50.23;101658.19;4991147;28;20066;-72
2022/04/28 01:59:24;;;;;;;3.70;2.10;;;;;;;20.22;50.38;101651.13;4991765;28;20054;-71
2022/04/28 02:02:07;;;;;;;2.92;2.08;;;;;;;20.21;50.22;101650.22;4975397;28;20053;-72
2022/04/28 02:04:35;;;;;;;3.50;1.90;;;;;;;20.21;50.26;101652.06;4991134;28;20065;-71
2022/04/28 02:07:03;;;;;;;4.18;2.20;;;;;;;20.21;50.17;101644.00;4959469;28;20046;-71
2022/04/28 02:09:30;;;;;;;3.97;1.83;;;;;;;20.21;50.26;101652.91;4991974;28;20540;-71
2022/04/28 02:12:00;;;;;;;2.75;2.00;;;;;;;20.20;50.20;101653.91;4975574;28;20422;-71
2022/04/28 02:14:54;;;;;;;4.50;2.08;;;;;;;20.19;49.99;101652.19;4952883;29;20047;-71
2022/04/28 02:17:44;;;;;;;3.72;2.25;;;;;;;20.20;50.08;101648.53;4952674;28;20055;-71
2022/04/28 02:20:12;;;;;;;2.88;1.83;;;;;;;20.19;50.13;101641.44;4952199;29;20058;-72
2022/04/28 02:22:42;;;;;;;2.80;2.20;;;;;;;20.17;49.99;101640.69;4935598;29;20058;-72
2022/04/28 02:25:10;;;;;;;3.88;2.17;;;;;;;20.17;50.09;101640.69;4935446;29;20059;-72
2022/04/28 02:27:38;;;;;;;3.00;1.75;;;;;;;20.17;50.12;101645.22;4940544;28;20043;-72
2022/04/28 02:30:06;;;;;;;3.58;2.22;;;;;;;20.18;49.93;101645.13;4955782;28;20169;-72
2022/04/28 02:35:23;;;;;;;4.25;2.20;;;;;;;20.16;50.06;101649.75;4955425;28;20146;-72
2022/04/28 02:37:51;;;;;;;2.95;2.58;;;;;;;20.16;49.89;101649.75;4956747;28;20054;-71
2022/04/28 02:40:19;;;;;;;4.10;2.40;;;;;;;20.16;49.92;101652.44;4959254;28;20054;-71
2022/04/28 02:42:46;;;;;;;4.28;2.35;;;;;;;20.16;49.89;101648.88;4959174;28;20055;-71
2022/04/28 02:45:14;;;;;;;3.00;2.28;;;;;;;20.15;49.90;101649.88;4959283;28;20054;-71
2022/04/28 02:47:49;;;;;;;3.85;2.47;;;;;;;20.16;49.78;101659.63;4958775;28;20050;-71
2022/04/28 02:50:17;;;;;;;3.92;2.20;;;;;;;20.15;49.90;101656.09;4959262;28;20047;-71
2022/04/28 02:52:45;;;;;;;3.17;2.20;;;;;;;20.13;49.73;101655.34;5010441;28;20410;-71
2022/04/28 02:55:13;;;;;;;2.70;2.00;;;;;;;20.14;49.80;101649.00;5014992;28;20049;-71
2022/04/28 02:57:41;;;;;;;2.70;1.88;;;;;;;20.13;49.85;101652.66;5014990;28;20477;-71
2022/04/28 03:00:10;;;;;;;3.35;2.10;;;;;;;20.13;49.78;101647.28;5014891;28;20505;-71
2022/04/28 03:02:53;;;;;;;2.53;2.00;;;;;;;20.13;49.64;101651.81;5014769;28;20057;-71
2022/04/28 03:05:21;;;;;;;2.97;2.00;;;;;;;20.13;49.66;101651.81;5014396;28;20409;-71
2022/04/28 03:10:49;;;;;;;3.83;2.25;;;;;;;20.12;49.66;101656.31;5014566;28;20057;-71
2022/04/28 03:13:22;;;;;;;2.78;2.00;;;;;;;20.12;49.76;101650.09;5014247;28;20061;-71
2022/04/28 03:15:53;;;;;;;3.95;2.15;;;;;;;20.11;49.64;101651.06;5030932;28;20430;-71
2022/04/28 03:18:33;;;;;;;3.20;2.15;;;;;;;20.11;49.53;101653.75;5000070;28;20057;-71
2022/04/28 03:21:02;;;;;;;3.13;2.35;;;;;;;20.10;49.67;101652.91;5015939;28;20454;-71
2022/04/28 03:23:29;;;;;;;3.67;2.15;;;;;;;20.10;49.43;101654.75;5013745;28;20057;-71
2022/04/28 03:25:57;;;;;;;3.30;2.25;;;;;;;20.10;49.65;101662.81;5014047;28;20379;-71
2022/04/28 03:28:25;;;;;;;2.80;2.08;;;;;;;20.10;49.80;101662.81;5014754;28;20053;-71
2022/04/28 03:30:52;;;;;;;4.85;2.20;;;;;;;20.10;49.45;101671.72;5014159;28;20049;-71
2022/04/28 03:33:23;;;;;;;3.10;2.25;;;;;;;20.08;49.46;101662.91;5014285;28;20053;-71
2022/04/28 03:35:51;;;;;;;3.47;2.00;;;;;;;20.08;49.59;101670.97;5015227;28;20060;-71
2022/04/28 03:38:18;;;;;;;3.45;1.83;;;;;;;20.08;49.40;101664.75;5014346;28;20375;-71
2022/04/28 03:40:45;;;;;;;2.53;1.95;;;;;;;20.08;49.34;101664.75;5014031;28;20532;-72
2022/04/28 03:43:13;;;;;;;3.72;2.00;;;;;;;20.07;49.53;101674.66;5013951;28;20057;-72
2022/04/28 03:45:41;;;;;;;2.60;2.08;;;;;;;20.08;49.56;101672.81;5014988;28;20351;-72
2022/04/28 03:48:16;;;;;;;4.72;2.30;;;;;;;20.08;49.29;101684.41;5013404;28;20045;-72
2022/04/28 03:50:45;;;;;;;3.30;2.15;;;;;;;20.07;49.39;101680.00;5014843;28;20038;-71
2022/04/28 03:53:12;;;;;;;3.65;2.30;;;;;;;20.07;49.40;101673.78;5013886;28;20058;-71
2022/04/28 03:55:40;;;;;;;3.15;2.28;;;;;;;20.06;49.39;101683.69;5013790;28;20050;-72
2022/04/28 03:58:07;;;;;;;2.85;2.13;;;;;;;20.07;49.50;101687.22;5014067;28;20037;-71
2022/04/28 04:00:34;;;;;;;3.40;2.20;;;;;;;20.05;49.50;101681.94;5015218;28;20053;-71
2022/04/28 04:03:07;;;;;;;4.53;2.70;;;;;;;20.06;49.37;101688.22;5013631;28;20061;-71
2022/04/28 04:05:35;;;;;;;4.10;2.40;;;;;;;20.05;49.48;101684.63;5014505;28;20497;-72
2022/04/28 04:08:03;;;;;;;5.22;2.70;;;;;;;20.06;49.49;101688.22;5013583;28;20053;-72
2022/04/28 04:10:33;;;;;;;3.95;1.90;;;;;;;20.05;49.48;101687.31;5013191;28;20054;-72
2022/04/28 04:13:02;;;;;;;3.15;2.15;;;;;;;20.06;49.46;101683.69;5029838;28;20414;-72
2022/04/28 04:15:29;;;;;;;3.25;2.30;;;;;;;20.05;49.58;101691.84;5014546;28;20065;-72
2022/04/28 04:18:04;;;;;;;3.53;1.83;;;;;;;20.05;49.57;101695.38;5029474;28;20061;-72
2022/04/28 04:20:40;;;;;;;3.20;2.25;;;;;;;20.04;49.43;101701.75;5012910;28;20053;-72
2022/04/28 04:23:07;;;;;;;3.13;2.05;;;;;;;20.03;49.46;101705.41;5013166;28;20057;-72
2022/04/28 04:25:35;;;;;;;3.20;2.17;;;;;;;20.04;49.29;101707.13;5013103;28;20057;-72
2022/04/28 04:28:07;;;;;;;3.67;2.60;;;;;;;20.02;49.47;101703.72;5014037;28;20057;-72
2022/04/28 04:33:50;;;;;;;2.92;2.22;;;;;;;20.04;49.38;101725.09;5012986;28;20064;-72
2022/04/28 04:36:18;;;;;;;2.58;2.00;;;;;;;20.02;49.57;101722.53;5013002;28;20057;-72
2022/04/28 04:38:47;;;;;;;2.83;2.17;;;;;;;20.02;49.37;101729.72;5013155;28;20046;-72
2022/04/28 04:41:14;;;;;;;4.85;2.60;;;;;;;20.01;49.29;101728.84;5012906;28;20057;-72
2022/04/28 04:43:42;;;;;;;3.53;2.15;;;;;;;20.00;49.21;101728.00;5028988;28;20053;-72
2022/04/28 04:46:10;;;;;;;2.97;2.17;;;;;;;19.99;49.15;101730.81;4996216;28;20054;-72
2022/04/28 04:49:08;;;;;;;3.42;2.22;;;;;;;20.00;49.17;101735.19;5031937;28;20077;-71
2022/04/28 04:51:38;;;;;;;3.25;2.30;;;;;;;19.99;49.28;101737.03;5030914;28;20064;-72
2022/04/28 04:54:18;;;;;;;3.65;2.00;;;;;;;19.99;49.24;101739.72;5014802;28;20057;-72
2022/04/28 04:56:46;;;;;;;4.03;2.20;;;;;;;19.99;49.33;101744.25;5015165;28;20053;-72
2022/04/28 04:59:14;;;;;;;3.30;2.22;;;;;;;19.99;49.12;101744.25;5030915;28;20056;-72
2022/04/28 05:01:42;;;;;;;3.53;2.00;;;;;;;19.98;49.23;101743.38;5030768;28;20049;-72
2022/04/28 05:04:47;;;;;;;3.20;2.20;;;;;;;19.99;49.23;101749.63;4953750;28;20055;-72
2022/04/28 05:07:39;;;;;;;2.70;2.17;;;;;;;19.98;49.15;101751.47;4953258;28;20063;-72
2022/04/28 05:10:08;;;;;;;3.10;2.00;;;;;;;19.98;49.23;101755.97;4953257;29;20082;-72
2022/04/28 05:12:35;;;;;;;3.75;2.40;;;;;;;19.98;49.17;101751.47;4953331;28;20058;-71
2022/04/28 05:15:12;;;;;;;3.75;2.30;;;;;;;19.98;49.25;101750.59;4953403;28;20385;-73
2022/04/28 05:18:05;;;;;;;4.78;2.30;;;;;;;19.98;49.30;101758.66;4953357;28;20047;-72
2022/04/28 05:20:50;;;;;;;7.38;3.00;;;;;;;19.96;49.16;101755.22;4953565;28;20373;-72
2022/04/28 05:23:36;;;;;;;2.88;2.50;;;;;;;19.96;49.11;101758.75;4953661;28;20057;-72
2022/04/28 05:26:22;;;;;;;3.38;2.05;;;;;;;19.97;49.18;101763.19;4939565;28;20423;-72
2022/04/28 05:28:49;;;;;;;4.28;2.40;;;;;;;19.96;49.22;101757.91;4934058;29;20079;-72
2022/04/28 05:31:34;;;;;;;3.05;2.42;;;;;;;19.95;49.38;101762.44;4934204;29;20396;-72
2022/04/28 05:34:12;;;;;;;2.90;2.15;;;;;;;19.96;49.17;101760.59;4933770;29;20629;-72
2022/04/28 05:36:46;;;;;;;3.70;2.33;;;;;;;19.95;49.29;101756.19;5007523;28;20486;-72
2022/04/28 05:39:20;;;;;;;3.13;2.45;;;;;;;19.95;49.41;101758.88;5012072;28;20042;-72
2022/04/28 05:41:47;;;;;;;3.00;2.38;;;;;;;19.95;49.32;101759.72;5013045;28;20054;-72
2022/04/28 05:47:01;;;;;;;3.30;2.35;;;;;;;19.93;49.32;101759.00;5013735;28;20053;-72
2022/04/28 05:49:30;;;;;;;4.18;2.50;;;;;;;19.95;49.33;101766.94;5012184;28;20045;-72
2022/04/28 05:51:59;;;;;;;3.13;2.30;;;;;;;19.95;49.31;101769.63;5012297;28;20053;-72
2022/04/28 05:54:26;;;;;;;4.32;2.38;;;;;;;19.95;49.07;101772.31;5012504;28;20072;-72
2022/04/28 05:56:58;;;;;;;2.85;2.33;;;;;;;19.94;49.30;101774.16;5012772;28;20068;-72
2022/04/28 05:59:26;;;;;;;4.30;2.40;;;;;;;19.93;49.46;101775.13;5011897;28;20053;-72
2022/04/28 06:02:11;;;;;;;4.40;2.60;;;;;;;19.94;49.37;101776.00;5019677;28;20056;-72
2022/04/28 06:04:39;;;;;;;3.00;2.30;;;;;;;19.93;49.40;101783.19;5013634;28;20061;-72
2022/04/28 06:07:10;;;;;;;2.67;2.05;;;;;;;19.94;49.32;101781.34;5012195;28;20073;-72
2022/04/28 06:09:42;;;;;;;3.25;2.20;;;;;;;19.94;49.37;101778.69;5011571;28;20046;-72
2022/04/28 06:12:10;;;;;;;3.28;2.22;;;;;;;19.94;49.27;101781.34;5011924;28;20054;-72
2022/04/28 06:15:16;;;;;;;3.13;2.25;;;;;;;19.94;49.41;101789.44;5034852;28;20053;-72
2022/04/28 06:17:47;;;;;;;3.55;2.13;;;;;;;19.93;49.34;101793.94;5017869;28;20409;-73
2022/04/28 06:20:15;;;;;;;3.53;2.50;;;;;;;19.92;49.51;101792.22;5033877;28;20482;-72
2022/04/28 06:23:00;;;;;;;3.85;2.25;;;;;;;19.93;49.34;101801.13;5018162;28;20517;-73
2022/04/28 06:25:33;;;;;;;4.82;2.10;;;;;;;19.93;49.41;101803.81;5033786;28;20065;-72
2022/04/28 06:28:03;;;;;;;4.20;2.33;;;;;;;19.93;49.60;101801.13;5018121;28;20057;-72
2022/04/28 06:30:32;;;;;;;3.00;2.00;;;;;;;19.93;49.49;101803.81;5033237;28;20121;-72
2022/04/28 06:33:18;;;;;;;4.10;2.28;;;;;;;19.92;49.71;101808.31;5034560;28;20062;-72
2022/04/28 06:35:50;;;;;;;2.95;2.00;;;;;;;19.93;49.66;101806.50;5033314;28;20223;-72
2022/04/28 06:38:22;;;;;;;2.78;2.00;;;;;;;19.93;49.81;101806.50;5018102;28;20540;-72
2022/04/28 06:40:50;;;;;;;4.03;2.35;;;;;;;19.92;49.55;101807.47;5017587;28;20153;-72
2022/04/28 06:43:18;;;;;;;3.65;2.72;;;;;;;19.93;49.77;101811.88;5033255;28;20060;-72
2022/04/28 06:46:15;;;;;;;4.32;2.78;;;;;;;19.93;49.82;101812.75;5017209;28;20050;-71
2022/04/28 06:49:01;;;;;;;3.28;2.10;;;;;;;19.92;49.95;101813.72;5021587;28;20060;-72
2022/04/28 06:51:47;;;;;;;6.13;2.40;;;;;;;19.94;49.87;101819.00;5022739;28;20053;-71
2022/04/28 06:54:32;;;;;;;3.70;2.30;;;;;;;19.95;50.11;101818.00;5015192;28;20394;-72
2022/04/28 06:57:00;;;;;;;6.53;2.45;;;;;;;19.94;50.60;101822.53;5012118;28;20529;-71
2022/04/28 06:59:30;;;;;;;4.35;2.55;;;;;;;19.97;50.16;101826.81;5009964;28;20051;-71
2022/04/28 07:01:58;;;;;;;2.97;2.45;;;;;;;19.97;50.09;101825.00;4994918;28;20054;-71
2022/04/28 07:04:26;;;;;;;4.57;2.35;;;;;;;19.97;50.35;101819.63;4995915;28;20113;-71
2022/04/28 07:06:55;;;;;;;5.00;2.50;;;;;;;19.98;50.23;101823.16;4995181;28;20065;-71
2022/04/28 07:09:23;;;;;;;5.35;2.20;;;;;;;20.00;50.45;101826.59;4994841;28;20410;-72
2022/04/28 07:11:50;;;;;;;4.43;2.65;;;;;;;20.02;50.33;101829.19;4995015;28;20054;-71
2022/04/28 07:14:34;;;;;;;4.57;2.33;;;;;;;20.02;50.54;101830.03;4995085;28;20487;-71
2022/04/28 07:17:20;;;;;;;4.32;2.17;;;;;;;20.03;50.16;101837.13;5003325;28;20058;-72
2022/04/28 07:19:59;;;;;;;4.93;2.95;;;;;;;20.05;50.57;101828.94;4994737;28;20058;-71
2022/04/28 07:22:28;;;;;;;3.95;2.45;;;;;;;20.05;50.55;101829.78;4996066;28;20054;-71
2022/04/28 07:24:56;;;;;;;6.43;2.53;;;;;;;20.08;50.98;101826.03;4995637;28;20447;-71
2022/04/28 07:27:24;;;;;;;4.28;2.45;;;;;;;20.09;50.16;101831.28;4995215;28;20054;-71
2022/04/28 07:30:03;;;;;;;7.43;2.83;;;;;;;20.10;49.85;101826.78;4994817;28;20047;-71
2022/04/28 07:32:38;;;;;;;4.80;2.42;;;;;;;20.11;49.83;101834.72;4994806;28;20537;-72
2022/04/28 07:35:15;;;;;;;4.32;2.45;;;;;;;20.12;50.26;101827.53;5002155;28;20057;-72
2022/04/28 07:38:01;;;;;;;4.72;2.63;;;;;;;20.13;48.97;101831.91;5002509;28;20065;-72
2022/04/28 07:40:32;;;;;;;4.38;2.53;;;;;;;20.15;49.84;101838.06;4995265;28;20057;-72
2022/04/28 07:43:04;;;;;;;6.07;2.40;;;;;;;20.15;49.76;101838.06;4994492;28;20058;-72
2022/04/28 07:45:31;;;;;;;3.63;2.40;;;;;;;20.20;49.54;101836.72;4994951;28;20152;-72
2022/04/28 07:48:05;;;;;;;3.40;2.22;;;;;;;20.20;50.08;101839.41;4994296;28;20050;-71
2022/04/28 07:50:34;;;;;;;3.33;2.22;;;;;;;20.22;50.21;101842.88;4994170;28;20046;-71
2022/04/28 07:53:17;;;;;;;3.83;2.67;;;;;;;20.22;50.16;101834.81;4994032;28;20054;-71
2022/04/28 07:56:10;;;;;;;2.58;1.80;;;;;;;20.23;50.33;101839.19;4994100;28;20050;-72
2022/04/28 07:58:32;;;;;;;3.10;2.03;;;;;;;20.26;50.54;101846.19;4993799;28;20046;-73
2022/04/28 08:01:14;;;;;;;3.15;1.92;;;;;;;20.27;50.51;101847.91;4994021;28;20058;-71
2022/04/28 08:03:42;;;;;;;3.03;2.13;;;;;;;20.27;50.47;101847.91;4993884;28;20069;-71
2022/04/28 08:06:13;;;;;;;6.00;2.50;;;;;;;20.29;50.21;101845.94;4993590;28;20088;-71
2022/04/28 08:08:41;;;;;;;3.08;2.03;;;;;;;20.30;50.34;101850.38;4994052;28;20159;-72
2022/04/28 08:11:09;;;;;;;3.53;2.47;;;;;;;20.31;50.27;101851.22;4995173;28;20196;-71
2022/04/28 08:13:36;;;;;;;4.18;2.28;;;;;;;20.31;50.28;101852.09;4993879;28;20061;-73
2022/04/28 08:16:06;;;;;;;4.07;2.20;;;;;;;20.33;50.26;101857.34;4995078;28;20057;-72
2022/04/28 08:18:40;;;;;;;5.80;2.42;;;;;;;20.31;49.91;101849.41;4993717;28;20066;-71
2022/04/28 08:21:14;;;;;;;4.95;2.25;;;;;;;20.33;49.91;101858.19;4993140;28;20517;-72
2022/04/28 08:23:41;;;;;;;6.85;2.30;;;;;;;20.33;50.21;101855.50;4993337;28;20058;-72
2022/04/28 08:26:10;;;;;;;5.18;2.22;;;;;;;20.33;50.33;101855.50;4993695;28;20058;-71
2022/04/28 08:28:40;;;;;;;3.38;2.15;;;;;;;20.35;50.41;101855.41;4973737;28;20063;-72
2022/04/28 08:31:09;;;;;;;2.53;1.88;;;;;;;20.36;50.49;101854.44;4974507;28;20078;-71
2022/04/28 08:33:37;;;;;;;4.18;2.35;;;;;;;20.38;50.52;101856.03;4958169;28;20046;-71
2022/04/28 08:36:05;;;;;;;3.15;2.15;;;;;;;20.38;50.04;101850.66;4972606;28;20050;-72
2022/04/28 08:38:36;;;;;;;4.38;2.22;;;;;;;20.39;50.16;101855.06;4974359;28;20054;-71
2022/04/28 08:41:09;;;;;;;4.18;2.08;;;;;;;20.39;49.64;101857.75;4974640;28;20092;-73
2022/04/28 08:43:59;;;;;;;4.27;2.10;;;;;;;20.39;49.85;101852.38;4973014;28;20058;-72
2022/04/28 08:49:15;;;;;;;2.97;2.25;;;;;;;20.41;49.83;101850.41;4972186;28;20058;-72
2022/04/28 08:51:53;;;;;;;4.82;2.08;;;;;;;20.42;49.90;101854.84;4972025;28;20051;-72
2022/04/28 08:54:23;;;;;;;3.67;2.10;;;;;;;20.44;49.85;101862.78;4972438;28;20058;-72
2022/04/28 08:56:52;;;;;;;2.90;1.88;;;;;;;20.44;49.75;101860.09;4971552;28;20047;-72
2022/04/28 08:59:21;;;;;;;3.63;2.42;;;;;;;20.43;49.73;101855.69;4972394;28;20055;-71
2022/04/28 09:01:52;;;;;;;2.67;1.70;;;;;;;20.44;49.84;101862.78;4972568;28;20067;-71
2022/04/28 09:04:29;;;;;;;3.47;2.20;;;;;;;20.44;49.83;101862.78;4978904;28;20154;-71
2022/04/28 09:07:15;;;;;;;4.75;2.03;;;;;;;20.46;49.48;101860.84;4978422;28;20162;-71
2022/04/28 09:10:30;;;;;;;3.53;2.45;;;;;;;20.47;49.72;101859.88;4895882;29;20056;-71
2022/04/28 09:16:16;;;;;;;3.33;2.20;;;;;;;20.49;49.47;101860.63;4877419;29;20187;-71
2022/04/28 09:18:45;;;;;;;2.80;2.13;;;;;;;20.50;49.41;101859.69;4877423;29;20199;-71
2022/04/28 09:21:12;;;;;;;4.15;1.77;;;;;;;20.50;49.29;101862.38;4876742;29;20053;-71
2022/04/28 09:23:41;;;;;;;4.13;2.20;;;;;;;20.49;49.23;101864.19;4861896;29;20478;-71
2022/04/28 09:26:10;;;;;;;4.35;2.33;;;;;;;20.49;48.97;101856.13;4861474;29;20509;-71
2022/04/28 09:28:38;;;;;;;3.15;2.30;;;;;;;20.48;48.69;101858.91;4861459;29;20100;-71
2022/04/28 09:31:09;;;;;;;4.65;2.40;;;;;;;20.48;48.99;101856.22;4860799;29;20049;-71
2022/04/28 09:33:51;;;;;;;3.80;2.17;;;;;;;20.47;49.00;101852.66;4861505;29;20517;-71
2022/04/28 09:36:39;;;;;;;2.60;2.20;;;;;;;20.48;48.77;101853.50;4883600;29;20334;-71
2022/04/28 09:44:56;;;;;;;4.10;2.10;;;;;;;20.49;48.60;101861.50;4861384;29;20064;-71
2022/04/28 09:47:25;;;;;;;2.80;2.20;;;;;;;20.49;48.32;101849.88;4913409;29;20071;-71
2022/04/28 09:49:55;;;;;;;4.03;2.35;;;;;;;20.48;48.29;101858.91;4946747;28;20061;-71
2022/04/28 09:52:26;;;;;;;3.83;2.45;;;;;;;20.49;48.02;101855.25;4977953;28;20415;-71
2022/04/28 09:55:30;;;;;;;6.85;2.70;;;;;;;20.48;46.86;101850.81;4984197;28;20066;-71
2022/04/28 09:58:20;;;;;;;6.18;2.60;;;;;;;20.48;47.21;101850.81;4995679;28;20158;-71
2022/04/28 10:00:48;;;;;;;3.58;2.72;;;;;;;20.47;47.05;101847.28;4994786;28;20058;-71
2022/04/28 10:03:15;;;;;;;3.38;2.47;;;;;;;20.47;46.78;101857.19;4994648;28;20050;-71
2022/04/28 10:05:45;;;;;;;3.00;2.50;;;;;;;20.47;46.59;101851.81;4978429;28;20046;-71
2022/04/28 10:08:47;;;;;;;4.18;2.47;;;;;;;20.46;46.66;101848.25;4995514;28;20070;-71
2022/04/28 10:11:20;;;;;;;5.65;2.78;;;;;;;20.46;46.82;101848.25;4994584;28;20509;-71
2022/04/28 10:13:50;;;;;;;;;;;;;;;20.47;46.40;101846.44;4995137;28;20050;-71
2022/04/28 10:16:21;;;;;;;3.17;2.75;;;;;;;20.45;45.73;101840.28;4994207;28;19922;-71
2022/04/28 10:19:24;;;;;;;4.28;2.65;;;;;;;20.47;46.39;101843.72;4978254;28;20093;-71
2022/04/28 10:22:08;;;;;;;4.07;2.60;;;;;;;20.46;46.74;101842.88;4960026;28;20057;-71
2022/04/28 10:33:27;;;;;;;4.47;2.88;;;;;;;20.44;46.31;101835.88;4977330;28;20050;-71
2022/04/28 10:35:57;;;;;;;3.28;2.50;;;;;;;20.44;46.56;101839.44;4977211;28;20042;-71
2022/04/28 10:38:34;;;;;;;3.67;2.75;;;;;;;20.43;46.91;101828.81;4976922;28;20054;-71
2022/04/28 10:41:03;;;;;;;5.10;2.72;;;;;;;20.45;46.44;101830.38;4977226;28;20042;-71
2022/04/28 10:43:33;;;;;;;4.20;2.47;;;;;;;20.46;46.28;101832.13;4977286;28;20471;-71
2022/04/28 10:46:07;;;;;;;5.72;2.30;;;;;;;20.48;46.68;101826.63;4977151;28;20410;-71
2022/04/28 10:48:43;;;;;;;3.63;2.63;;;;;;;20.48;46.47;101824.81;4977157;28;20050;-71
2022/04/28 10:51:15;;;;;;;4.90;2.83;;;;;;;20.51;46.61;101825.56;4976298;28;20062;-71
2022/04/28 10:54:07;;;;;;;8.98;2.50;;;;;;;20.53;46.38;101823.59;4976155;28;20050;-71
2022/04/28 10:56:54;;;;;;;3.80;2.55;;;;;;;20.54;46.42;101822.63;4977193;28;20046;-71
2022/04/28 11:01:56;;;;;;;4.15;2.30;;;;;;;20.54;46.28;101822.63;4976833;28;20046;-71
2022/04/28 11:04:25;;;;;;;5.35;2.67;;;;;;;20.53;46.53;101813.69;4976574;28;20057;-71
2022/04/28 11:06:57;;;;;;;5.70;2.90;;;;;;;20.54;46.36;101830.69;4976753;28;20142;-71
2022/04/28 11:09:38;;;;;;;5.70;2.50;;;;;;;20.54;46.59;101822.63;4975771;28;20061;-70
2022/04/28 11:12:17;;;;;;;5.43;2.70;;;;;;;20.56;46.04;101823.38;4977294;28;20051;-70
2022/04/28 11:14:59;;;;;;;3.70;2.53;;;;;;;20.55;46.42;101822.53;4975576;28;20057;-70
2022/04/28 11:17:28;;;;;;;3.58;2.50;;;;;;;20.56;46.93;101820.69;4977495;28;20051;-70
2022/04/28 11:19:59;;;;;;;3.65;2.22;;;;;;;20.57;47.41;101820.56;4988062;28;20042;-71
2022/04/28 11:22:28;;;;;;;3.53;2.45;;;;;;;20.58;47.84;101816.94;4995295;28;20057;-70
2022/04/28 11:24:56;;;;;;;4.07;2.50;;;;;;;20.58;47.90;101822.31;4995205;28;20509;-70
2022/04/28 11:27:37;;;;;;;3.40;2.50;;;;;;;20.59;47.93;101818.63;4994829;28;20138;-71
2022/04/28 11:30:13;;;;;;;4.22;2.67;;;;;;;20.61;48.58;101813.13;4994595;28;20050;-71
2022/04/28 11:32:51;;;;;;;4.85;2.60;;;;;;;20.63;48.56;101819.25;4995624;28;20055;-70
2022/04/28 11:35:20;;;;;;;3.97;2.33;;;;;;;20.62;48.66;101807.66;4984062;28;20053;-71
2022/04/28 11:37:53;;;;;;;3.47;2.70;;;;;;;20.63;49.14;101798.59;4976059;28;20058;-71
2022/04/28 11:40:24;;;;;;;3.97;2.70;;;;;;;20.63;48.86;101800.44;4976482;28;20474;-73
2022/04/28 11:43:01;;;;;;;5.05;2.42;;;;;;;20.63;49.74;101803.97;4974854;28;20498;-71
2022/04/28 11:45:30;;;;;;;4.95;2.70;;;;;;;20.64;49.97;101807.53;4976142;28;20054;-71
2022/04/28 11:48:01;;;;;;;4.45;2.45;;;;;;;20.63;49.70;101816.56;4975893;28;20058;-71
2022/04/28 11:50:32;;;;;;;3.28;2.40;;;;;;;20.63;50.15;101806.66;4974393;28;20043;-71
2022/04/28 11:53:03;;;;;;;4.90;2.40;;;;;;;20.64;50.57;101813.75;4975777;28;20065;-71
2022/04/28 11:55:35;;;;;;;4.22;2.08;;;;;;;20.63;50.86;101801.28;4975814;28;20387;-71
2022/04/28 11:58:05;;;;;;;3.78;2.47;;;;;;;20.64;50.74;101803.00;4975318;28;20057;-71
2022/04/28 12:00:41;;;;;;;4.35;2.33;;;;;;;20.64;50.61;101810.22;4974352;28;20051;-71
2022/04/28 12:03:08;;;;;;;4.60;2.53;;;;;;;20.63;50.67;101797.75;4975483;28;20054;-72
2022/04/28 12:05:36;;;;;;;3.45;2.42;;;;;;;20.63;50.49;101806.66;4973439;28;20057;-71
2022/04/28 12:08:05;;;;;;;5.00;2.60;;;;;;;20.63;50.91;101803.97;4974754;28;20065;-71
2022/04/28 12:16:14;;;;;;;3.40;2.50;;;;;;;20.63;55.68;101809.34;4975727;28;20054;-71
2022/04/28 12:21:34;;;;;;;2.70;2.20;;;;;;;20.59;55.15;101799.81;4974944;28;20050;-70
2022/04/28 12:24:11;;;;;;;3.70;2.40;;;;;;;20.58;54.89;101791.81;4975144;28;20059;-70
2022/04/28 12:26:43;;;;;;;3.53;2.33;;;;;;;20.57;54.93;101790.97;4979492;28;20065;-71
2022/04/28 12:29:12;;;;;;;12.35;4.13;;;;;;;20.56;55.07;101786.56;4991847;28;20074;-71
2022/04/28 12:31:41;;;;;;;6.60;2.40;;;;;;;20.55;55.29;101790.25;4975046;28;20395;-71
2022/04/28 12:34:23;;;;;;;3.05;2.38;;;;;;;20.54;55.78;101791.22;4977242;28;20491;-71
2022/04/28 12:36:59;;;;;;;2.80;2.40;;;;;;;20.53;56.06;101791.31;4974413;28;20118;-70
2022/04/28 12:39:31;;;;;;;4.88;2.65;;;;;;;20.52;55.17;101793.16;4975186;28;20051;-71
2022/04/28 12:42:10;;;;;;;3.10;2.20;;;;;;;20.51;55.17;101788.75;4972770;28;20057;-71